LTBH Airport Information

Runway Information
Runway 04 Length 5905 ft width 98 ft
Elevation 12 ft Threshold 0 ft Heading 41
Runway 22 Length 5905 ft Width 98 ft
Elevation 21 ft Threshold 0 ft Heading 221
Airport Frequencies
Type APP Name YESILKOY A Frequency 122.1 MHZ
Type TWR Name TWR Frequency 123.6 MHZ
Airport Navaids
Type VOR-DME Name Canakkale Frequency 111200 KHZ
Type NDB Name Canakkale Frequency 422 KHZ
Airport Weather Information & NOTAM
ADDS - METARS form results

(0020 UTC 17 February 2019)
Data provider http://aviationweather.gov/metar/data/
 
Forecast for: LTBH (CANAKKALE , TR)
Text: TAF LTBH 162240Z 1700/1709 04008KT 9999 SCT035 BKN100
Forecast period: 0000 to 0600 UTC 17 February 2019
Forecast type: FROM: standard forecast or significant change
Winds: from the NE (40 degrees) at 9 MPH (8 knots; 4.1 m/s)
Visibility: 6 or more miles 10+ km)
Ceiling: 10000 feet AGL
Clouds: scattered clouds at 3500 feet AGL
broken clouds at 10000 feet AGL
Weather: no significant weather forecast for this period
Text: BECMG 1706/1709 CAVOK
Forecast period: 0600 to 0900 UTC 17 February 2019
Forecast type: BECOMING: Conditions expected to become as follows by 0900 UTC 17 February 2019
Winds: from the NE (40 degrees) at 9 MPH (8 knots; 4.1 m/s)
Visibility: 6 or more miles 10+ km)
Ceiling: unknown
Clouds: missing
Weather: NSW  (no significant weather)